Time;durP1;ratioP1;P1;durP2;ratioP2;P2;SDS_P1;SDS_P2;PMS_P1;PMS_P2;Temp;Humidity;BMP_temperature;BMP_pressure;BME280_temperature;BME280_humidity;BME280_pressure;Samples;Min_cycle;Max_cycle;Signal;HPM_P1;HPM_P2
2021/12/31 00:01:38;;;;;;;;;12.00;10.50;;;;;14.07;75.32;101399.22;5095518;27;46580;-75
2021/12/31 00:04:04;;;;;;;;;13.75;11.25;;;;;14.01;75.24;101403.13;5095131;27;46974;-76
2021/12/31 00:06:29;;;;;;;;;15.00;13.50;;;;;14.03;75.47;101397.75;5086751;27;45712;-77
2021/12/31 00:08:54;;;;;;;;;13.00;12.00;;;;;14.03;75.07;101414.41;5097673;27;45709;-75
2021/12/31 00:11:20;;;;;;;;;13.50;12.50;;;;;13.97;75.38;101400.84;5093697;27;45570;-77
2021/12/31 00:13:45;;;;;;;;;13.75;12.75;;;;;13.98;75.11;101405.97;5093683;27;45574;-75
2021/12/31 00:16:10;;;;;;;;;11.00;10.50;;;;;13.97;75.11;101406.09;5093282;27;45568;-73
2021/12/31 00:18:36;;;;;;;;;11.25;10.75;;;;;13.92;75.37;101393.28;5093155;27;45718;-76
2021/12/31 00:21:03;;;;;;;;;12.50;9.75;;;;;13.93;75.14;101397.56;5082761;27;48288;-73
2021/12/31 00:23:28;;;;;;;;;11.00;10.25;;;;;13.92;75.25;101397.69;5097795;27;46138;-78
2021/12/31 00:25:54;;;;;;;;;11.75;9.75;;;;;13.92;75.37;101389.78;5092906;27;45856;-75
2021/12/31 00:28:20;;;;;;;;;8.25;7.00;;;;;13.88;75.25;101391.78;5092718;27;45618;-76
2021/12/31 00:30:51;;;;;;;;;10.00;7.75;;;;;13.87;75.50;101384.84;5092789;27;46514;-73
2021/12/31 00:33:17;;;;;;;;;13.00;11.00;;;;;13.82;75.28;101373.78;5086173;27;46356;-74
2021/12/31 00:35:42;;;;;;;;;10.00;8.75;;;;;13.86;75.22;101377.91;5095536;27;45631;-74
2021/12/31 00:38:08;;;;;;;;;10.50;10.00;;;;;13.81;75.33;101374.75;5094189;27;45639;-75
2021/12/31 00:40:33;;;;;;;;;5.75;4.00;;;;;13.82;75.10;101381.69;5093736;27;45833;-74
2021/12/31 00:42:59;;;;;;;;;11.00;10.00;;;;;13.72;75.32;101378.88;5092661;27;46112;-74
2021/12/31 00:45:25;;;;;;;;;13.75;9.75;;;;;13.74;75.35;101373.50;5091524;27;46292;-77
2021/12/31 00:47:51;;;;;;;;;11.00;9.50;;;;;13.77;75.59;101395.19;5092560;27;45652;-77
2021/12/31 00:50:17;;;;;;;;;11.00;9.75;;;;;13.77;75.25;101391.72;5092617;27;45653;-73
2021/12/31 00:52:42;;;;;;;;;8.25;8.25;;;;;13.72;75.46;101391.19;5100118;27;46202;-74
2021/12/31 00:55:10;;;;;;;;;11.25;10.00;;;;;13.73;75.34;101390.25;5092505;27;45807;-74
2021/12/31 00:57:36;;;;;;;;;12.00;11.00;;;;;13.71;75.07;101390.34;5092297;27;45794;-76
2021/12/31 01:00:06;;;;;;;;;12.75;11.25;;;;;13.69;75.61;101380.91;5104705;27;46571;-74
2021/12/31 01:02:31;;;;;;;;;7.50;7.25;;;;;13.68;75.22;101393.22;5101649;27;46445;-77
2021/12/31 01:04:57;;;;;;;;;14.50;12.25;;;;;13.67;75.79;101393.31;5103954;27;45710;-79
2021/12/31 01:07:23;;;;;;;;;11.00;11.00;;;;;13.65;75.36;101382.94;5094359;27;45790;-76
2021/12/31 01:09:48;;;;;;;;;13.00;10.00;;;;;13.64;75.64;101377.75;5103880;27;45840;-76
2021/12/31 01:12:14;;;;;;;;;9.00;7.00;;;;;13.59;75.29;101359.66;5111247;27;45713;-77
2021/12/31 01:14:53;;;;;;;;;13.00;11.00;;;;;13.62;75.22;101371.75;5107311;27;45698;-76
2021/12/31 01:17:24;;;;;;;;;12.25;11.75;;;;;13.58;75.62;101365.88;5109373;27;45650;-76
2021/12/31 01:19:50;;;;;;;;;9.75;9.75;;;;;13.55;75.31;101357.38;5095761;27;46540;-76
2021/12/31 01:22:29;;;;;;;;;11.00;10.00;;;;;13.54;75.51;101361.78;5109442;27;46167;-76
2021/12/31 01:24:56;;;;;;;;;12.25;10.25;;;;;13.47;75.34;101350.00;5109552;27;45484;-78
2021/12/31 01:27:22;;;;;;;;;12.25;11.00;;;;;13.50;75.48;101354.19;5096623;27;46396;-77
2021/12/31 01:29:48;;;;;;;;;11.25;10.75;;;;;13.36;75.18;101334.97;5111045;27;46190;-78
2021/12/31 01:32:13;;;;;;;;;13.00;9.00;;;;;13.43;75.40;101349.38;5109080;27;45707;-76
2021/12/31 01:34:39;;;;;;;;;13.50;12.00;;;;;13.44;75.33;101353.69;5108224;27;45657;-77
2021/12/31 01:37:05;;;;;;;;;13.50;12.25;;;;;13.43;75.63;101359.06;5109074;27;45633;-78
2021/12/31 01:39:31;;;;;;;;;13.25;11.50;;;;;13.40;75.41;101361.91;5109345;27;46804;-79
2021/12/31 01:41:58;;;;;;;;;16.00;12.50;;;;;13.40;75.16;101361.91;5104157;27;45563;-78
2021/12/31 01:44:33;;;;;;;;;12.75;11.00;;;;;13.40;75.48;101367.16;5115297;27;45790;-78
2021/12/31 01:47:04;;;;;;;;;11.50;11.50;;;;;13.36;75.44;101363.91;5111836;27;45794;-79
2021/12/31 01:49:38;;;;;;;;;7.00;7.00;;;;;13.36;75.44;101382.34;5102399;27;45790;-74
2021/12/31 01:52:05;;;;;;;;;12.25;11.25;;;;;13.34;75.32;101388.66;5105063;27;46095;-77
2021/12/31 01:54:32;;;;;;;;;11.50;11.00;;;;;13.30;75.70;101388.03;5109302;27;45549;-81
2021/12/31 01:57:01;;;;;;;;;12.00;10.25;;;;;13.31;75.28;101395.00;5095530;27;45590;-75
2021/12/31 01:59:28;;;;;;;;;17.25;13.75;;;;;13.29;75.45;101396.88;5108097;27;46005;-78
2021/12/31 02:01:55;;;;;;;;;12.00;11.25;;;;;13.27;75.69;101393.53;5105205;27;46375;-79
2021/12/31 02:04:20;;;;;;;;;13.00;11.75;;;;;13.30;75.88;101395.94;5095139;27;45587;-78
2021/12/31 02:06:45;;;;;;;;;12.75;11.50;;;;;13.25;75.44;101384.88;5099143;27;45618;-80
2021/12/31 02:09:12;;;;;;;;;15.50;13.00;;;;;13.26;75.34;101378.69;5109756;27;46266;-78
2021/12/31 02:11:38;;;;;;;;;15.50;13.75;;;;;13.28;75.54;101379.41;5105097;27;45985;-82
2021/12/31 02:14:04;;;;;;;;;18.00;17.00;;;;;13.25;75.61;101374.34;5096492;27;45553;-79
2021/12/31 02:16:31;;;;;;;;;21.50;19.00;;;;;13.27;75.30;101377.75;5098321;27;45633;-81
2021/12/31 02:18:57;;;;;;;;;22.00;19.75;;;;;13.25;75.38;101377.00;5102175;27;45661;-79
2021/12/31 02:21:23;;;;;;;;;25.00;21.25;;;;;13.25;75.62;101373.50;5106224;27;46974;-81
2021/12/31 02:23:55;;;;;;;;;25.75;19.00;;;;;13.24;75.57;101375.31;5096179;27;45823;-77
2021/12/31 02:26:20;;;;;;;;;29.75;25.00;;;;;13.21;75.26;101365.00;5095311;27;45690;-81
2021/12/31 02:28:45;;;;;;;;;27.75;21.25;;;;;13.21;75.20;101366.78;5095979;27;48204;-80
2021/12/31 02:31:11;;;;;;;;;29.75;26.50;;;;;13.21;75.43;101361.53;5099305;27;45735;-80
2021/12/31 02:33:36;;;;;;;;;28.25;24.50;;;;;13.14;75.23;101349.75;5080231;27;45919;-85
2021/12/31 02:36:04;;;;;;;;;25.00;23.75;;;;;13.19;75.37;101355.53;5108262;27;45813;-82
2021/12/31 02:38:29;;;;;;;;;29.50;27.75;;;;;13.16;75.71;101353.13;5095393;27;46378;-81
2021/12/31 02:40:55;;;;;;;;;25.00;23.50;;;;;13.15;75.48;101354.06;5096446;27;46165;-77
2021/12/31 02:43:20;;;;;;;;;24.50;20.75;;;;;13.13;75.59;101350.69;5100293;27;45476;-74
2021/12/31 02:45:47;;;;;;;;;27.00;22.50;;;;;13.08;75.40;101345.72;5100502;27;45451;-76
2021/12/31 02:48:13;;;;;;;;;25.25;24.50;;;;;13.08;75.19;101345.72;5102052;27;46467;-78
2021/12/31 02:50:41;;;;;;;;;26.25;24.00;;;;;12.98;75.49;101328.91;5103964;27;46935;-78
2021/12/31 02:53:13;;;;;;;;;24.00;20.75;;;;;13.02;75.24;101339.09;5094489;27;45722;-75
2021/12/31 02:55:41;;;;;;;;;24.75;22.00;;;;;13.03;75.45;101332.03;5109212;27;45662;-74
2021/12/31 02:58:07;;;;;;;;;20.00;18.00;;;;;13.00;75.33;101325.22;5108525;27;46658;-79
2021/12/31 03:00:36;;;;;;;;;17.25;16.75;;;;;13.00;75.48;101333.13;5101738;27;47096;-77
2021/12/31 03:03:04;;;;;;;;;14.00;13.00;;;;;12.96;75.28;101323.72;5108032;27;45663;-75
2021/12/31 03:05:31;;;;;;;;;16.00;14.00;;;;;12.95;75.44;101318.59;5094810;27;45592;-78
2021/12/31 03:07:58;;;;;;;;;14.50;13.50;;;;;12.94;75.45;101323.00;5107575;27;46767;-76
2021/12/31 03:10:26;;;;;;;;;12.00;11.00;;;;;12.96;75.09;101330.78;5108807;27;47203;-74
2021/12/31 03:12:53;;;;;;;;;11.75;10.50;;;;;12.92;75.57;101326.69;5106974;27;45615;-74
2021/12/31 03:15:19;;;;;;;;;12.75;9.75;;;;;12.85;75.11;101314.91;5109869;27;45840;-74
2021/12/31 03:17:45;;;;;;;;;8.50;8.50;;;;;12.91;75.40;101327.63;5094633;27;46016;-73
2021/12/31 03:20:15;;;;;;;;;8.00;6.75;;;;;12.88;75.05;101341.84;5108519;27;46505;-74
2021/12/31 03:22:42;;;;;;;;;8.25;7.75;;;;;12.86;75.46;101345.50;5105329;27;45831;-74
2021/12/31 03:25:10;;;;;;;;;8.50;6.00;;;;;12.86;75.24;101354.25;5098241;27;45537;-73
2021/12/31 03:27:36;;;;;;;;;8.50;6.75;;;;;12.82;75.13;101362.47;5093410;27;46479;-76
2021/12/31 03:30:03;;;;;;;;;8.75;6.50;;;;;12.78;75.19;101377.63;5095277;27;46045;-74
2021/12/31 03:32:28;;;;;;;;;8.00;6.75;;;;;12.81;74.83;101392.31;5104131;27;45613;-76
2021/12/31 03:34:54;;;;;;;;;10.25;9.50;;;;;12.78;75.00;101398.66;5107291;27;45946;-74
2021/12/31 03:37:19;;;;;;;;;8.00;8.00;;;;;12.76;75.31;101407.56;5093376;27;46688;-74
2021/12/31 03:39:44;;;;;;;;;10.50;9.00;;;;;12.73;74.89;101399.91;5093557;27;46055;-73
2021/12/31 03:42:14;;;;;;;;;7.25;5.25;;;;;12.74;74.99;101388.44;5100700;27;45750;-74
2021/12/31 03:44:40;;;;;;;;;6.50;6.50;;;;;12.74;74.72;101380.56;5096808;27;45851;-74
2021/12/31 03:47:06;;;;;;;;;8.50;7.75;;;;;12.73;75.41;101365.72;5093187;27;45930;-74
2021/12/31 03:49:31;;;;;;;;;7.50;6.50;;;;;12.74;74.79;101346.38;5106611;27;46206;-73
2021/12/31 03:51:57;;;;;;;;;8.75;8.00;;;;;12.70;74.86;101337.84;5104193;27;45788;-73
2021/12/31 03:54:22;;;;;;;;;8.25;7.25;;;;;12.73;75.15;101332.38;5096341;27;45943;-72
2021/12/31 03:56:47;;;;;;;;;9.00;8.25;;;;;12.72;74.98;101335.97;5093218;27;46224;-77
2021/12/31 03:59:13;;;;;;;;;7.75;7.75;;;;;12.71;75.00;101342.16;5088514;27;47077;-77
2021/12/31 04:01:40;;;;;;;;;6.25;6.25;;;;;12.71;75.09;101342.16;5113987;27;45706;-75
2021/12/31 04:04:07;;;;;;;;;7.00;6.00;;;;;12.71;74.77;101322.91;5098422;27;45794;-77
2021/12/31 04:06:33;;;;;;;;;7.50;7.25;;;;;12.65;74.82;101310.19;5084324;27;46322;-80
2021/12/31 04:08:59;;;;;;;;;5.50;5.50;;;;;12.67;74.95;101322.28;5099421;27;46137;-76
2021/12/31 04:11:24;;;;;;;;;10.25;9.25;;;;;12.68;74.64;101320.50;5104425;27;45682;-73
2021/12/31 04:13:49;;;;;;;;;8.75;8.50;;;;;12.67;74.75;101317.03;5093282;27;45852;-76
2021/12/31 04:16:15;;;;;;;;;8.00;6.50;;;;;12.66;75.01;101314.50;5100791;27;47651;-73
2021/12/31 04:18:40;;;;;;;;;8.75;5.50;;;;;12.67;75.18;101310.94;5083942;27;45689;-76
2021/12/31 04:21:06;;;;;;;;;6.00;6.00;;;;;12.66;75.04;101330.28;5099564;27;45651;-74
2021/12/31 04:23:35;;;;;;;;;6.00;5.50;;;;;12.64;75.00;101333.00;5093183;27;45586;-75
2021/12/31 04:26:01;;;;;;;;;6.00;5.25;;;;;12.65;75.05;101325.94;5093150;27;45558;-74
2021/12/31 04:28:27;;;;;;;;;4.50;4.50;;;;;12.64;74.69;101317.22;5092230;27;46132;-74
2021/12/31 04:30:54;;;;;;;;;6.75;5.00;;;;;12.62;74.97;101298.09;5103322;27;45754;-74
2021/12/31 04:33:19;;;;;;;;;5.00;5.00;;;;;12.65;74.94;101310.19;5102441;27;45984;-75
2021/12/31 04:35:45;;;;;;;;;9.75;8.50;;;;;12.60;74.83;101303.44;5102784;27;46733;-74
2021/12/31 04:38:10;;;;;;;;;6.75;6.25;;;;;12.60;74.63;101305.22;5092364;27;46176;-76
2021/12/31 04:40:36;;;;;;;;;7.00;5.25;;;;;12.63;74.92;101305.03;5092993;27;45808;-74
2021/12/31 04:43:01;;;;;;;;;8.75;5.50;;;;;12.58;74.60;101294.81;5098673;27;45809;-74
2021/12/31 04:45:27;;;;;;;;;5.00;4.50;;;;;12.60;74.77;101292.94;5100181;27;45678;-73
2021/12/31 04:47:52;;;;;;;;;8.00;6.00;;;;;12.60;74.51;101292.94;5097938;27;47232;-75
2021/12/31 04:50:18;;;;;;;;;5.75;5.50;;;;;12.55;74.81;101291.56;5088450;27;45844;-76
2021/12/31 04:52:44;;;;;;;;;6.50;6.00;;;;;12.58;74.51;101304.50;5116706;27;45624;-74
2021/12/31 04:55:11;;;;;;;;;4.25;4.25;;;;;12.58;74.67;101309.75;5100791;27;45599;-76
2021/12/31 04:57:36;;;;;;;;;4.00;4.00;;;;;12.56;74.62;101317.75;5099001;27;45762;-75
2021/12/31 05:00:05;;;;;;;;;5.25;4.50;;;;;12.53;74.90;101319.72;5110314;27;45651;-76
2021/12/31 05:02:30;;;;;;;;;7.75;5.25;;;;;12.55;74.86;101326.59;5099352;27;45584;-75
2021/12/31 05:04:55;;;;;;;;;4.75;4.00;;;;;12.53;74.44;101317.94;5099473;27;46530;-74
2021/12/31 05:07:21;;;;;;;;;3.75;3.25;;;;;12.54;74.53;101313.53;5107822;27;46581;-75
2021/12/31 05:09:46;;;;;;;;;6.00;5.25;;;;;12.48;74.71;101314.78;5108583;27;46061;-74
2021/12/31 05:12:15;;;;;;;;;5.50;5.00;;;;;12.52;74.81;101320.72;5103811;27;45682;-77
2021/12/31 05:14:42;;;;;;;;;6.75;4.00;;;;;12.47;74.58;101309.66;5099216;27;45683;-76
2021/12/31 05:17:07;;;;;;;;;4.75;4.00;;;;;12.48;74.78;101314.78;5098809;27;45975;-76
2021/12/31 05:19:33;;;;;;;;;4.00;3.75;;;;;12.47;74.78;101315.72;5099000;27;45697;-73
2021/12/31 05:21:58;;;;;;;;;5.25;4.00;;;;;12.46;74.50;101314.06;5102507;27;46900;-74
2021/12/31 05:24:23;;;;;;;;;6.50;6.50;;;;;12.47;74.43;101312.28;5113986;27;45766;-74
2021/12/31 05:26:49;;;;;;;;;4.25;4.00;;;;;12.46;74.64;101300.94;5110609;27;46160;-74
2021/12/31 05:29:14;;;;;;;;;5.75;4.75;;;;;12.39;74.70;101289.16;5109430;27;45708;-75
2021/12/31 05:31:40;;;;;;;;;5.00;4.25;;;;;12.44;74.65;101304.59;5112766;27;46256;-72
2021/12/31 05:34:05;;;;;;;;;5.00;3.75;;;;;12.43;74.59;101297.66;5109472;27;46195;-74
2021/12/31 05:36:30;;;;;;;;;4.25;4.25;;;;;12.44;74.49;101286.19;5101498;27;46105;-78
2021/12/31 05:38:56;;;;;;;;;4.75;4.75;;;;;12.42;74.50;101290.72;5098830;27;45813;-73
2021/12/31 05:41:21;;;;;;;;;3.75;3.75;;;;;12.41;74.68;101289.06;5090070;27;45747;-76
2021/12/31 05:43:47;;;;;;;;;5.75;4.25;;;;;12.41;74.61;101286.41;5099558;27;46504;-78
2021/12/31 05:46:12;;;;;;;;;3.50;3.50;;;;;12.35;74.56;101274.53;5112911;27;46290;-77
2021/12/31 05:48:37;;;;;;;;;8.50;5.75;;;;;12.39;74.58;101281.25;5098493;27;45700;-74
2021/12/31 05:51:03;;;;;;;;;4.75;4.00;;;;;12.40;74.74;101277.69;5095059;27;45651;-75
2021/12/31 05:53:29;;;;;;;;;4.00;4.00;;;;;12.40;74.64;101268.97;5106648;27;46715;-76
2021/12/31 05:55:54;;;;;;;;;8.00;5.00;;;;;12.39;74.73;101259.41;5095842;27;46100;-76
2021/12/31 05:58:19;;;;;;;;;4.00;4.00;;;;;12.35;74.43;101257.94;5100753;27;45644;-81
2021/12/31 06:00:45;;;;;;;;;6.25;5.75;;;;;12.36;74.46;101275.38;5115678;27;45498;-80
2021/12/31 06:03:10;;;;;;;;;5.00;4.75;;;;;12.34;74.57;101274.63;5103166;27;46729;-77
2021/12/31 06:05:36;;;;;;;;;5.00;4.50;;;;;12.33;74.45;101275.56;5102345;27;45800;-76
2021/12/31 06:08:01;;;;;;;;;4.50;4.00;;;;;12.38;74.32;101289.25;5109328;27;45644;-80
2021/12/31 06:10:27;;;;;;;;;7.75;7.00;;;;;12.36;74.62;101283.28;5102305;27;45668;-79
2021/12/31 06:12:59;;;;;;;;;4.00;4.00;;;;;12.37;74.69;101300.69;5096847;27;47366;-78
2021/12/31 06:15:27;;;;;;;;;4.00;4.00;;;;;12.37;74.41;101311.19;5104767;27;46207;-78
2021/12/31 06:17:52;;;;;;;;;4.75;4.00;;;;;12.37;74.54;101312.03;5095936;27;45520;-74
2021/12/31 06:20:18;;;;;;;;;5.25;5.25;;;;;12.36;74.34;101318.25;5110284;27;45583;-78
2021/12/31 06:22:43;;;;;;;;;6.25;6.25;;;;;12.37;74.69;101319.09;5106338;27;47359;-79
2021/12/31 06:25:09;;;;;;;;;4.50;4.50;;;;;12.33;74.31;101304.47;5108940;27;46755;-74
2021/12/31 06:27:35;;;;;;;;;5.00;4.00;;;;;12.37;74.36;101303.31;5094769;27;45883;-77
2021/12/31 06:30:01;;;;;;;;;5.00;4.50;;;;;12.36;74.42;101307.72;5105458;27;45917;-82
2021/12/31 06:32:26;;;;;;;;;5.00;5.00;;;;;12.36;74.66;101299.03;5095597;27;46497;-79
2021/12/31 06:34:52;;;;;;;;;5.50;4.25;;;;;12.34;74.40;101307.00;5111484;27;45938;-80
2021/12/31 06:37:17;;;;;;;;;6.25;5.00;;;;;12.35;74.24;101319.22;5103884;27;45698;-79
2021/12/31 06:39:45;;;;;;;;;4.50;4.50;;;;;12.33;74.46;101309.72;5101479;27;45592;-78
2021/12/31 06:42:10;;;;;;;;;8.00;7.00;;;;;12.30;74.51;101294.19;5106930;27;47484;-77
2021/12/31 06:44:37;;;;;;;;;5.50;5.00;;;;;12.26;74.37;101283.03;5108989;27;46302;-79
2021/12/31 06:47:04;;;;;;;;;5.75;5.00;;;;;12.28;74.55;101296.91;5104105;27;45778;-80
2021/12/31 06:49:30;;;;;;;;;7.25;6.00;;;;;12.30;74.36;101309.94;5086898;27;45918;-81
2021/12/31 06:51:55;;;;;;;;;8.00;6.00;;;;;12.27;74.60;101318.03;5103219;27;46709;-80
2021/12/31 06:54:20;;;;;;;;;6.50;6.25;;;;;12.27;74.35;101329.38;5101568;27;45872;-81
2021/12/31 06:56:46;;;;;;;;;5.00;5.00;;;;;12.26;74.51;101325.06;5108118;27;46237;-79
2021/12/31 06:59:11;;;;;;;;;5.50;5.00;;;;;12.24;74.24;101321.72;5110844;27;45810;-75
2021/12/31 07:01:37;;;;;;;;;5.25;5.25;;;;;12.22;74.31;101284.19;5113263;27;46355;-73
2021/12/31 07:04:02;;;;;;;;;8.00;4.50;;;;;12.16;74.51;101269.66;5111398;27;45992;-75
2021/12/31 07:06:28;;;;;;;;;7.50;7.25;;;;;12.16;74.28;101306.44;5101702;27;45714;-74
2021/12/31 07:08:53;;;;;;;;;5.00;5.00;;;;;12.13;74.28;101322.41;5109353;27;45732;-78
2021/12/31 07:11:22;;;;;;;;;7.25;7.25;;;;;12.11;74.44;101312.94;5095530;27;45649;-77
2021/12/31 07:13:47;;;;;;;;;5.50;5.00;;;;;12.06;74.36;101312.41;5094224;27;46608;-75
2021/12/31 07:16:13;;;;;;;;;9.00;7.00;;;;;12.01;74.43;101310.09;5094241;27;45634;-75
2021/12/31 07:18:38;;;;;;;;;8.00;7.50;;;;;12.07;74.38;101307.06;5093308;27;45604;-76
2021/12/31 07:21:03;;;;;;;;;6.75;6.50;;;;;12.06;74.44;101328.16;5094142;27;47227;-73
2021/12/31 07:23:29;;;;;;;;;8.75;7.50;;;;;12.05;74.51;101324.69;5100976;27;46467;-75
2021/12/31 07:25:54;;;;;;;;;7.00;4.50;;;;;12.02;74.72;101311.78;5093875;27;45521;-74
2021/12/31 07:28:20;;;;;;;;;5.50;5.50;;;;;12.03;74.24;101329.22;5093729;27;45807;-78
2021/12/31 07:30:46;;;;;;;;;10.25;6.00;;;;;12.04;74.56;101330.03;5103615;27;45603;-80
2021/12/31 07:33:18;;;;;;;;;4.50;4.50;;;;;12.04;74.33;101337.91;5109608;27;46019;-74
2021/12/31 07:35:44;;;;;;;;;7.00;7.00;;;;;12.04;74.50;101354.53;5082893;27;45490;-74
2021/12/31 07:38:18;;;;;;;;;7.00;5.25;;;;;12.05;74.45;101358.00;5084273;27;46169;-76
2021/12/31 07:40:44;;;;;;;;;4.50;4.25;;;;;12.06;74.30;101338.66;5074057;27;45660;-74
2021/12/31 07:43:10;;;;;;;;;7.25;7.00;;;;;12.07;74.06;101329.84;5073938;27;45708;-75
2021/12/31 07:45:39;;;;;;;;;8.75;7.00;;;;;12.08;74.63;101331.53;5074415;27;45604;-75
2021/12/31 07:48:05;;;;;;;;;7.75;6.50;;;;;12.09;74.29;101307.78;5073464;27;45676;-74
2021/12/31 07:50:36;;;;;;;;;7.00;6.00;;;;;12.06;74.31;101304.53;5072863;27;46449;-76
2021/12/31 07:53:05;;;;;;;;;8.00;8.00;;;;;12.06;74.37;101301.91;5072860;27;46202;-77
2021/12/31 07:55:31;;;;;;;;;5.00;4.50;;;;;12.06;74.43;101301.91;5080103;27;45715;-74
2021/12/31 07:57:56;;;;;;;;;6.50;5.00;;;;;12.12;74.59;101327.78;5081155;27;46090;-74
2021/12/31 08:00:22;;;;;;;;;6.25;6.25;;;;;12.10;74.29;101317.34;5092882;27;45549;-74
2021/12/31 08:02:53;;;;;;;;;7.50;7.00;;;;;12.09;74.54;101318.28;5075136;27;45687;-74
2021/12/31 08:05:18;;;;;;;;;8.50;7.00;;;;;12.15;74.35;101317.88;5072996;27;45797;-76
2021/12/31 08:07:44;;;;;;;;;5.00;5.00;;;;;12.17;74.64;101328.31;5066441;27;46050;-74
2021/12/31 08:10:09;;;;;;;;;5.00;5.00;;;;;12.21;74.54;101345.53;5092923;27;46406;-73
2021/12/31 08:12:37;;;;;;;;;5.00;4.75;;;;;12.24;74.27;101331.38;5093386;27;45685;-75
2021/12/31 08:15:04;;;;;;;;;7.50;7.00;;;;;12.24;74.13;101342.72;5091415;27;45720;-74
2021/12/31 08:17:30;;;;;;;;;8.00;4.00;;;;;12.26;74.12;101351.31;5078569;27;45722;-76
2021/12/31 08:19:55;;;;;;;;;5.75;5.75;;;;;12.25;74.18;101357.56;5079586;27;46513;-75
2021/12/31 08:22:24;;;;;;;;;5.25;5.25;;;;;12.27;74.13;101363.53;5086068;27;46280;-76
2021/12/31 08:24:51;;;;;;;;;7.25;6.75;;;;;12.28;74.44;101380.97;5050928;27;45715;-79
2021/12/31 08:27:16;;;;;;;;;7.00;5.00;;;;;12.30;74.40;101384.38;5074713;27;45985;-74
2021/12/31 08:29:42;;;;;;;;;5.00;5.00;;;;;12.23;74.33;101366.47;5082301;27;47586;-76
2021/12/31 08:32:07;;;;;;;;;5.25;4.50;;;;;12.27;74.38;101365.31;5079810;27;45888;-80
2021/12/31 08:34:32;;;;;;;;;6.00;5.00;;;;;12.26;74.13;101359.22;5078985;27;45665;-76
2021/12/31 08:36:59;;;;;;;;;5.00;5.00;;;;;12.29;74.46;101350.31;5106551;27;45513;-75
2021/12/31 08:39:24;;;;;;;;;7.00;5.50;;;;;12.29;74.33;101348.53;5105994;27;45997;-74
2021/12/31 08:41:49;;;;;;;;;8.50;6.75;;;;;12.34;74.38;101367.44;5107769;27;46196;-77
2021/12/31 08:44:16;;;;;;;;;4.75;4.50;;;;;12.35;74.43;101355.16;5104128;27;46099;-75
2021/12/31 08:46:42;;;;;;;;;7.00;7.00;;;;;12.35;74.15;101361.25;5081185;27;45807;-77
2021/12/31 08:49:07;;;;;;;;;8.25;7.75;;;;;12.39;74.15;101369.75;5111018;27;46359;-75
2021/12/31 08:51:33;;;;;;;;;8.00;6.25;;;;;12.39;74.43;101373.22;5092709;27;46291;-74
2021/12/31 08:53:58;;;;;;;;;8.00;7.50;;;;;12.40;74.04;101356.53;5092476;27;45778;-75
2021/12/31 08:56:23;;;;;;;;;5.50;5.00;;;;;12.47;74.16;101362.22;5092490;27;45737;-77
2021/12/31 08:58:49;;;;;;;;;9.00;6.25;;;;;12.51;74.02;101361.06;5102290;27;46224;-75
2021/12/31 09:01:16;;;;;;;;;6.50;6.50;;;;;12.55;73.99;101371.28;5094620;27;46952;-75
2021/12/31 09:03:41;;;;;;;;;11.50;8.75;;;;;12.51;74.33;101367.16;5076359;27;45989;-78
2021/12/31 09:06:07;;;;;;;;;6.50;6.00;;;;;12.60;73.89;101366.53;5101356;27;45943;-74
2021/12/31 09:08:34;;;;;;;;;5.00;5.00;;;;;12.55;74.05;101358.13;5108356;27;46493;-73
2021/12/31 09:10:59;;;;;;;;;6.25;5.25;;;;;12.66;74.07;101385.47;5095590;27;46418;-79
2021/12/31 09:13:27;;;;;;;;;7.25;5.75;;;;;12.68;74.33;101404.63;5093163;27;45731;-74
2021/12/31 09:15:52;;;;;;;;;11.25;9.25;;;;;12.65;74.32;101399.56;5093422;27;45668;-78
2021/12/31 09:18:18;;;;;;;;;8.00;8.00;;;;;12.63;74.15;101399.69;5092179;27;46626;-77
2021/12/31 09:20:43;;;;;;;;;6.00;6.00;;;;;12.69;74.16;101408.91;5092311;27;47233;-76
2021/12/31 09:23:09;;;;;;;;;7.25;6.75;;;;;12.72;74.05;101403.47;5095205;27;45628;-76
2021/12/31 09:25:34;;;;;;;;;8.50;8.50;;;;;12.73;74.14;101377.09;5092277;27;45687;-77
2021/12/31 09:28:00;;;;;;;;;8.00;6.00;;;;;12.71;74.00;101384.22;5091441;27;47313;-75
2021/12/31 09:30:26;;;;;;;;;5.75;4.00;;;;;12.76;73.93;101403.16;5100131;27;46065;-74
2021/12/31 09:32:51;;;;;;;;;5.00;5.00;;;;;12.75;74.25;101406.72;5106479;27;45579;-76
2021/12/31 09:35:16;;;;;;;;;5.00;4.75;;;;;12.72;74.11;101396.44;5097845;27;45548;-75
2021/12/31 09:37:43;;;;;;;;;7.00;5.00;;;;;12.77;73.93;101398.75;5106950;27;47519;-76
2021/12/31 09:40:09;;;;;;;;;6.00;6.00;;;;;12.72;73.97;101371.91;5096554;27;45992;-78
2021/12/31 09:42:36;;;;;;;;;5.00;4.00;;;;;12.80;74.15;101402.00;5108353;27;45642;-77
2021/12/31 09:45:03;;;;;;;;;5.50;5.00;;;;;12.77;74.02;101394.31;5102648;27;45913;-75
2021/12/31 09:47:28;;;;;;;;;7.00;5.50;;;;;12.83;73.97;101414.94;5085064;27;48594;-77
2021/12/31 09:49:53;;;;;;;;;7.25;6.75;;;;;12.80;74.13;101416.94;5099993;27;46244;-75
2021/12/31 09:52:22;;;;;;;;;9.25;6.00;;;;;12.83;73.81;101422.00;5103442;27;45673;-75
2021/12/31 09:54:49;;;;;;;;;6.25;6.25;;;;;12.81;73.79;101427.34;5109450;27;45940;-77
2021/12/31 09:57:16;;;;;;;;;7.25;6.00;;;;;12.83;74.10;101443.03;5095479;27;46441;-77
2021/12/31 09:59:42;;;;;;;;;8.00;6.00;;;;;12.80;73.99;101453.75;5106560;27;47048;-81
2021/12/31 10:02:09;;;;;;;;;6.50;5.25;;;;;12.85;74.29;101462.16;5095162;27;45710;-77
2021/12/31 10:04:51;;;;;;;;;6.50;5.75;;;;;12.86;73.85;101466.50;5099840;27;46763;-75
2021/12/31 10:07:20;;;;;;;;;5.50;5.00;;;;;12.86;74.03;101458.59;5096130;27;46278;-75
2021/12/31 10:10:04;;;;;;;;;4.50;4.50;;;;;12.84;73.95;101450.84;5107417;27;46455;-79
2021/12/31 10:12:53;;;;;;;;;8.00;5.50;;;;;12.92;74.02;101452.94;5097115;27;45663;-82
2021/12/31 10:15:21;;;;;;;;;5.75;4.75;;;;;12.96;74.04;101462.28;5098049;27;45664;-80
2021/12/31 10:17:47;;;;;;;;;7.50;5.50;;;;;12.98;73.71;101461.25;5096385;27;45757;-83
2021/12/31 10:20:14;;;;;;;;;5.00;5.00;;;;;13.01;73.55;101466.28;5094972;27;46924;-78
2021/12/31 10:22:40;;;;;;;;;8.50;6.00;;;;;13.00;73.71;101469.91;5095098;27;45899;-79
2021/12/31 10:25:17;;;;;;;;;7.25;6.00;;;;;13.08;74.05;101484.31;5095681;27;45692;-78
2021/12/31 10:27:42;;;;;;;;;5.75;5.75;;;;;13.04;73.84;101474.00;5094744;27;47353;-77
2021/12/31 10:30:08;;;;;;;;;6.00;5.00;;;;;13.07;73.73;101470.31;5098553;27;46016;-76
2021/12/31 10:32:36;;;;;;;;;23.75;22.00;;;;;13.17;73.76;101478.47;5105270;27;45571;-80
2021/12/31 10:35:11;;;;;;;;;7.00;6.00;;;;;13.20;73.80;101484.34;5109483;27;45857;-79
2021/12/31 10:37:42;;;;;;;;;4.50;4.00;;;;;13.19;73.54;101485.31;5095859;27;46819;-81
2021/12/31 10:40:08;;;;;;;;;4.00;4.00;;;;;13.25;73.57;101502.47;5098391;27;47202;-81
2021/12/31 10:42:34;;;;;;;;;7.25;6.00;;;;;13.25;73.73;101507.72;5104242;27;45662;-80
2021/12/31 10:45:02;;;;;;;;;5.75;5.25;;;;;13.28;73.65;101528.59;5096463;27;46024;-81
2021/12/31 10:47:38;;;;;;;;;3.50;2.50;;;;;13.31;74.03;101546.78;5095474;27;45721;-78
2021/12/31 10:50:03;;;;;;;;;4.50;4.25;;;;;13.35;73.95;101556.16;5103175;27;46092;-79
2021/12/31 10:52:56;;;;;;;;;4.75;4.75;;;;;13.35;73.61;101550.88;5100584;27;45572;-77
2021/12/31 10:55:29;;;;;;;;;8.25;5.50;;;;;13.39;73.88;101540.03;5015854;28;45890;-79
2021/12/31 10:58:03;;;;;;;;;6.25;5.00;;;;;13.39;73.49;101537.41;5015666;28;46622;-78
2021/12/31 11:00:34;;;;;;;;;4.50;4.50;;;;;13.38;73.29;101540.19;5031945;28;46288;-78
2021/12/31 11:03:00;;;;;;;;;5.50;4.75;;;;;13.42;73.34;101537.22;5012438;28;45848;-81
2021/12/31 11:05:26;;;;;;;;;5.00;5.00;;;;;13.46;73.60;101527.31;5014271;28;45895;-79
2021/12/31 11:07:53;;;;;;;;;4.50;4.50;;;;;13.48;73.80;101533.34;5019507;28;45668;-82
2021/12/31 11:10:24;;;;;;;;;5.75;5.00;;;;;13.51;73.32;101548.06;5018477;28;47602;-81
2021/12/31 11:12:52;;;;;;;;;5.75;4.25;;;;;13.56;73.37;101540.69;5012511;28;45856;-80
2021/12/31 11:15:18;;;;;;;;;3.25;3.00;;;;;13.59;73.67;101545.75;5013372;28;45792;-81
2021/12/31 11:17:44;;;;;;;;;8.25;6.50;;;;;13.59;73.83;101540.50;5021366;28;47464;-78
2021/12/31 11:20:12;;;;;;;;;6.00;6.00;;;;;13.67;73.27;101548.69;5024695;28;46506;-75